Pagrindinis puslapis
METAR-TAF:

METAR-TAF

Oro uostai :

Altenstadt, Vokietija

platuma: 47-50N, ilguma: 010-52E, Aukštis: 739 m

Dabartinis oras

Ataskaita buvo paskelbta 1 valandą ir 9 minutes, ne 18:20 UTC
Vėjas 6 kt iš Rytų/Šiaurės Rytų
Temperatūra 8°C
Drėgmė 71%
Slėgis 1027 hPa
Matomumas 10 km arba daugiau
Mažai debesys ne aukštis 14000 ft
Išsisklaidę debesys ne aukštis 33000 ft

METAR: ETHA 191820Z 06006KT 9999 FEW140 SCT330 08/03 Q1027 BLU+

Laikas: 21:29 (19:29 UTC)

Prognozė

Ataskaita buvo paskelbta 4 valandos ir 21 minutes, ne 15:08 UTC
Prognozė galioja nuo 19 metu 14 UTC su 19 metu 23 UTC
Vėjas 7 kt iš Rytų/Šiaurės Rytų
Matomumas: 1520 m
Mažai debesys ne aukštis 4000 ft
Išsisklaidę debesys ne aukštis 30000 ft

TAF: ETHA 191508Z 1914/1923 07007KT 9999 NSW FEW040 SCT300 CANCEL 1520

Orai ataskaitas ir orų prognozės (METAR, TAF).

turimą stotys yra geltonos ir raudonos taškus žemėlapyje.

Perkelti pele per norėdami pamatyti stoties vardą.

Tada spustelėkite, norėdami matyti oro stebėjimo ir prognozės.

Norėdami pakeisti žemėlapį: spustelėkite ant žalios mygtukų su juodo kryžiaus žemyn,; žalią mygtuką su brūkšneliu, jei norite nutolinti; arba žalių rodyklių gretimoms žemėlapius.


METAR-TAF: